Tuesday, November 21, 2017, 3:39 PM GMT
Back to Local

CWVU, Brier Island, N. S.

Location: , , Canada Lat: 44.286
Local Time: 3:39 PM GMT (15:39 GMT) Lon: -66.347
Time Zone: GMT Elev: 52 ft

Show me the last for .
Show Coded

Time T Td Feel RH Dir Speed Gust Alt SLP Vis Weather Sky Remarks
2017-11-21 15:00 39 29 34 67 180° 6 - - 30.19 0 None
2017-11-21 14:00 34 25 - 69 240° 2 - - 30.19 0 None
2017-11-21 13:00 32 25 24 73 280° 10 - - 30.19 0 Peak wind: 19 mph (17 kts) from 280° at 17 min
2017-11-21 12:00 30 23 19 75 280° 15 - - 30.17 0 Peak wind: 25 mph (22 kts) from 290° at 16 min
2017-11-21 11:00 28 21 12 74 290° 21 31 - 30.14 0 Peak wind: 31 mph (27 kts) from 290° at 02 min
2017-11-21 10:00 28 22 14 76 280° 24 - - 30.13 0 Peak wind: 34 mph (30 kts) from 290° at 32 min
2017-11-21 09:00 28 21 11 76 280° 26 33 - 30.12 0 Peak wind: 40 mph (35 kts) from 290° at 24 min
2017-11-21 08:00 27 21 11 77 290° 24 31 - 30.09 0 Peak wind: 36 mph (32 kts) from 300° at 16 min
2017-11-21 07:00 26 19 9 74 280° 26 32 - 30.07 0 Peak wind: 34 mph (30 kts) from 270° at 16 min
2017-11-21 06:00 27 21 10 77 280° 25 36 - 30.04 0 Peak wind: 35 mph (31 kts) from 280° at 59 min
2017-11-21 05:00 28 21 11 74 290° 24 31 - 30.00 0 Peak wind: 36 mph (32 kts) from 290° at 24 min
2017-11-21 04:00 28 21 11 73 290° 30 39 - 29.98 0 Peak wind: 42 mph (37 kts) from 290° at 49 min
2017-11-21 03:00 30 22 12 73 280° 32 41 - 29.94 0 Peak wind: 42 mph (37 kts) from 270° at 08 min
2017-11-21 02:00 30 21 12 67 290° 33 45 - 29.92 0 Peak wind: 44 mph (39 kts) from 280° at 14 min
2017-11-21 01:00 30 22 13 70 280° 36 45 - 29.89 0 Peak wind: 51 mph (45 kts) from 270° at 16 min
2017-11-21 00:00 32 19 14 60 280° 36 48 - 29.85 0 Peak wind: 51 mph (45 kts) from 290° at 11 min
2017-11-20 23:00 34 23 17 62 270° 44 54 - 29.81 0 Peak wind: 54 mph (47 kts) from 280° at 57 min
2017-11-20 22:00 35 21 19 55 270° 40 49 - 29.76 0 Peak wind: 49 mph (43 kts) from 270° at 53 min
2017-11-20 21:00 37 22 22 55 270° 32 43 - 29.73 0 Peak wind: 42 mph (37 kts) from 270° at 51 min
2017-11-20 20:00 37 26 23 63 270° 31 40 - 29.72 0 Peak wind: 41 mph (36 kts) from 270° at 45 min
2017-11-20 19:00 36 26 22 65 260° 26 38 - 29.71 0 Peak wind: 37 mph (33 kts) from 270° at 54 min
2017-11-20 18:00 36 26 23 65 280° 24 33 - 29.70 0 Peak wind: 39 mph (34 kts) from 270° at 07 min
2017-11-20 17:00 37 25 23 61 280° 32 38 - 29.70 0 Peak wind: 43 mph (38 kts) from 270° at 14 min
2017-11-20 16:00 37 26 23 64 280° 33 41 - 29.68 0 Peak wind: 43 mph (38 kts) from 280° at 41 min

Support USWX by starting your Amazon purchase here.